sensor_id;sensor_type;location;lat;lon;timestamp;pressure;altitude;pressure_sealevel;temperature;humidity
11523;BME280;70090;43.208;27.904;2023-05-11T00:01:35;101564.94;;;10.51;100.00
11523;BME280;70090;43.208;27.904;2023-05-11T00:04:02;101568.25;;;10.57;100.00
11523;BME280;70090;43.208;27.904;2023-05-11T00:06:28;101567.53;;;10.32;100.00
11523;BME280;70090;43.208;27.904;2023-05-11T00:08:56;101569.84;;;10.30;100.00
11523;BME280;70090;43.208;27.904;2023-05-11T00:11:24;101564.22;;;10.27;100.00
11523;BME280;70090;43.208;27.904;2023-05-11T00:13:51;101571.91;;;10.21;100.00
11523;BME280;70090;43.208;27.904;2023-05-11T00:16:18;101569.63;;;10.23;100.00
11523;BME280;70090;43.208;27.904;2023-05-11T00:18:45;101574.63;;;10.33;100.00
11523;BME280;70090;43.208;27.904;2023-05-11T00:21:13;101567.34;;;10.13;100.00
11523;BME280;70090;43.208;27.904;2023-05-11T00:23:40;101567.78;;;10.15;100.00
11523;BME280;70090;43.208;27.904;2023-05-11T00:26:07;101563.44;;;10.14;100.00
11523;BME280;70090;43.208;27.904;2023-05-11T00:28:35;101561.63;;;10.18;100.00
11523;BME280;70090;43.208;27.904;2023-05-11T00:31:02;101567.56;;;10.20;100.00
11523;BME280;70090;43.208;27.904;2023-05-11T00:33:28;101563.88;;;10.16;100.00
11523;BME280;70090;43.208;27.904;2023-05-11T00:35:55;101564.72;;;10.05;100.00
11523;BME280;70090;43.208;27.904;2023-05-11T00:38:22;101576.16;;;9.95;100.00
11523;BME280;70090;43.208;27.904;2023-05-11T00:40:49;101563.25;;;9.95;100.00
11523;BME280;70090;43.208;27.904;2023-05-11T00:43:16;101570.81;;;9.86;100.00
11523;BME280;70090;43.208;27.904;2023-05-11T00:45:44;101574.00;;;9.88;100.00
11523;BME280;70090;43.208;27.904;2023-05-11T00:48:13;101568.72;;;10.19;100.00
11523;BME280;70090;43.208;27.904;2023-05-11T00:50:40;101566.63;;;10.28;100.00
11523;BME280;70090;43.208;27.904;2023-05-11T00:53:06;101559.59;;;10.31;100.00
11523;BME280;70090;43.208;27.904;2023-05-11T00:55:34;101567.03;;;10.42;100.00
11523;BME280;70090;43.208;27.904;2023-05-11T00:58:01;101561.25;;;10.59;100.00
11523;BME280;70090;43.208;27.904;2023-05-11T01:00:29;101565.91;;;10.71;100.00
11523;BME280;70090;43.208;27.904;2023-05-11T01:02:59;101558.94;;;10.89;100.00
11523;BME280;70090;43.208;27.904;2023-05-11T01:05:33;101561.63;;;11.01;100.00
11523;BME280;70090;43.208;27.904;2023-05-11T01:08:07;101556.75;;;11.10;100.00
11523;BME280;70090;43.208;27.904;2023-05-11T01:10:41;101557.97;;;11.12;100.00
11523;BME280;70090;43.208;27.904;2023-05-11T01:13:16;101559.75;;;11.20;100.00
11523;BME280;70090;43.208;27.904;2023-05-11T01:15:47;101560.59;;;11.36;100.00
11523;BME280;70090;43.208;27.904;2023-05-11T01:18:21;101563.69;;;11.50;100.00
11523;BME280;70090;43.208;27.904;2023-05-11T01:20:54;101559.06;;;11.54;100.00
11523;BME280;70090;43.208;27.904;2023-05-11T01:23:44;101572.69;;;11.47;100.00
11523;BME280;70090;43.208;27.904;2023-05-11T01:26:34;101573.66;;;11.39;100.00
11523;BME280;70090;43.208;27.904;2023-05-11T01:29:22;101569.53;;;11.33;100.00
11523;BME280;70090;43.208;27.904;2023-05-11T01:31:53;101571.31;;;11.10;100.00
11523;BME280;70090;43.208;27.904;2023-05-11T01:34:22;101568.81;;;11.05;100.00
11523;BME280;70090;43.208;27.904;2023-05-11T01:36:53;101560.81;;;11.00;100.00
11523;BME280;70090;43.208;27.904;2023-05-11T01:39:34;101565.69;;;11.07;100.00
11523;BME280;70090;43.208;27.904;2023-05-11T01:42:06;101559.66;;;10.86;100.00
11523;BME280;70090;43.208;27.904;2023-05-11T01:44:34;101544.63;;;10.83;100.00
11523;BME280;70090;43.208;27.904;2023-05-11T01:47:05;101557.44;;;10.91;100.00
11523;BME280;70090;43.208;27.904;2023-05-11T01:49:35;101553.25;;;10.97;100.00
11523;BME280;70090;43.208;27.904;2023-05-11T01:52:04;101550.06;;;11.11;100.00
11523;BME280;70090;43.208;27.904;2023-05-11T01:54:33;101548.41;;;11.22;100.00
11523;BME280;70090;43.208;27.904;2023-05-11T01:57:02;101554.63;;;11.34;100.00
11523;BME280;70090;43.208;27.904;2023-05-11T01:59:29;101556.56;;;11.49;100.00
11523;BME280;70090;43.208;27.904;2023-05-11T02:01:58;101555.69;;;11.45;100.00
11523;BME280;70090;43.208;27.904;2023-05-11T02:04:28;101561.50;;;10.97;100.00
11523;BME280;70090;43.208;27.904;2023-05-11T02:06:56;101560.44;;;10.86;100.00
11523;BME280;70090;43.208;27.904;2023-05-11T02:09:24;101559.91;;;10.96;100.00
11523;BME280;70090;43.208;27.904;2023-05-11T02:11:53;101562.59;;;11.08;100.00
11523;BME280;70090;43.208;27.904;2023-05-11T02:14:22;101557.44;;;11.07;100.00
11523;BME280;70090;43.208;27.904;2023-05-11T02:16:50;101556.38;;;11.11;100.00
11523;BME280;70090;43.208;27.904;2023-05-11T02:19:18;101549.34;;;10.98;100.00
11523;BME280;70090;43.208;27.904;2023-05-11T02:21:49;101553.25;;;10.97;100.00
11523;BME280;70090;43.208;27.904;2023-05-11T02:24:18;101548.28;;;11.03;100.00
11523;BME280;70090;43.208;27.904;2023-05-11T02:26:46;101546.88;;;11.09;100.00
11523;BME280;70090;43.208;27.904;2023-05-11T02:29:13;101552.19;;;11.02;100.00
11523;BME280;70090;43.208;27.904;2023-05-11T02:31:42;101550.69;;;11.04;100.00
11523;BME280;70090;43.208;27.904;2023-05-11T02:34:15;101539.69;;;11.04;100.00
11523;BME280;70090;43.208;27.904;2023-05-11T02:36:48;101541.53;;;11.00;100.00
11523;BME280;70090;43.208;27.904;2023-05-11T02:39:18;101545.22;;;10.77;100.00
11523;BME280;70090;43.208;27.904;2023-05-11T02:41:48;101543.91;;;10.86;100.00
11523;BME280;70090;43.208;27.904;2023-05-11T02:44:18;101543.13;;;10.86;100.00
11523;BME280;70090;43.208;27.904;2023-05-11T02:46:47;101545.72;;;10.94;100.00
11523;BME280;70090;43.208;27.904;2023-05-11T02:49:17;101535.41;;;10.91;100.00
11523;BME280;70090;43.208;27.904;2023-05-11T02:51:49;101547.13;;;11.04;100.00
11523;BME280;70090;43.208;27.904;2023-05-11T02:54:17;101546.59;;;11.14;100.00
11523;BME280;70090;43.208;27.904;2023-05-11T02:56:45;101553.53;;;10.92;100.00
11523;BME280;70090;43.208;27.904;2023-05-11T02:59:12;101548.63;;;10.86;100.00
11523;BME280;70090;43.208;27.904;2023-05-11T03:01:40;101549.91;;;10.76;100.00
11523;BME280;70090;43.208;27.904;2023-05-11T03:04:07;101550.31;;;10.63;100.00
11523;BME280;70090;43.208;27.904;2023-05-11T03:06:34;101548.59;;;10.70;100.00
11523;BME280;70090;43.208;27.904;2023-05-11T03:09:03;101550.75;;;10.77;100.00
11523;BME280;70090;43.208;27.904;2023-05-11T03:11:30;101544.75;;;10.59;100.00
11523;BME280;70090;43.208;27.904;2023-05-11T03:13:58;101562.19;;;10.51;100.00
11523;BME280;70090;43.208;27.904;2023-05-11T03:16:27;101561.44;;;10.66;100.00
11523;BME280;70090;43.208;27.904;2023-05-11T03:18:54;101565.19;;;10.74;100.00
11523;BME280;70090;43.208;27.904;2023-05-11T03:21:22;101565.00;;;10.67;100.00
11523;BME280;70090;43.208;27.904;2023-05-11T03:23:50;101576.34;;;10.65;100.00
11523;BME280;70090;43.208;27.904;2023-05-11T03:26:20;101573.75;;;10.57;100.00
11523;BME280;70090;43.208;27.904;2023-05-11T03:28:47;101568.53;;;10.67;100.00
11523;BME280;70090;43.208;27.904;2023-05-11T03:31:17;101571.25;;;10.79;100.00
11523;BME280;70090;43.208;27.904;2023-05-11T03:33:44;101568.16;;;10.81;100.00
11523;BME280;70090;43.208;27.904;2023-05-11T03:36:11;101574.19;;;10.86;100.00
11523;BME280;70090;43.208;27.904;2023-05-11T03:38:39;101569.03;;;10.85;100.00
11523;BME280;70090;43.208;27.904;2023-05-11T03:41:07;101571.78;;;10.85;100.00
11523;BME280;70090;43.208;27.904;2023-05-11T03:43:36;101577.59;;;10.95;100.00
11523;BME280;70090;43.208;27.904;2023-05-11T03:46:03;101576.97;;;11.02;100.00
11523;BME280;70090;43.208;27.904;2023-05-11T03:48:31;101580.56;;;11.02;100.00
11523;BME280;70090;43.208;27.904;2023-05-11T03:50:58;101583.31;;;11.02;100.00
11523;BME280;70090;43.208;27.904;2023-05-11T03:53:26;101584.63;;;11.08;100.00
11523;BME280;70090;43.208;27.904;2023-05-11T03:55:52;101586.81;;;10.87;100.00
11523;BME280;70090;43.208;27.904;2023-05-11T03:58:20;101578.56;;;10.87;100.00
11523;BME280;70090;43.208;27.904;2023-05-11T04:00:49;101585.16;;;10.98;100.00
11523;BME280;70090;43.208;27.904;2023-05-11T04:03:16;101585.97;;;10.99;100.00
11523;BME280;70090;43.208;27.904;2023-05-11T04:05:43;101582.94;;;11.04;100.00
11523;BME280;70090;43.208;27.904;2023-05-11T04:08:10;101579.13;;;11.08;100.00
11523;BME280;70090;43.208;27.904;2023-05-11T04:10:38;101593.09;;;11.15;100.00
11523;BME280;70090;43.208;27.904;2023-05-11T04:13:04;101592.19;;;11.11;100.00
11523;BME280;70090;43.208;27.904;2023-05-11T04:15:31;101585.78;;;11.07;100.00
11523;BME280;70090;43.208;27.904;2023-05-11T04:18:01;101597.69;;;11.11;100.00
11523;BME280;70090;43.208;27.904;2023-05-11T04:20:27;101599.75;;;11.14;100.00
11523;BME280;70090;43.208;27.904;2023-05-11T04:22:54;101593.88;;;11.16;100.00
11523;BME280;70090;43.208;27.904;2023-05-11T04:25:21;101595.44;;;11.01;100.00
11523;BME280;70090;43.208;27.904;2023-05-11T04:27:48;101596.22;;;11.29;100.00
11523;BME280;70090;43.208;27.904;2023-05-11T04:30:15;101597.63;;;11.54;100.00
11523;BME280;70090;43.208;27.904;2023-05-11T04:32:42;101595.28;;;11.84;100.00
11523;BME280;70090;43.208;27.904;2023-05-11T04:35:10;101598.34;;;12.13;100.00
11523;BME280;70090;43.208;27.904;2023-05-11T04:37:37;101589.53;;;12.42;100.00
11523;BME280;70090;43.208;27.904;2023-05-11T04:40:05;101599.56;;;12.69;100.00
11523;BME280;70090;43.208;27.904;2023-05-11T04:42:32;101603.28;;;12.95;100.00
11523;BME280;70090;43.208;27.904;2023-05-11T04:44:59;101599.47;;;13.22;100.00
11523;BME280;70090;43.208;27.904;2023-05-11T04:47:25;101612.13;;;13.46;100.00
11523;BME280;70090;43.208;27.904;2023-05-11T04:49:52;101611.69;;;13.66;100.00
11523;BME280;70090;43.208;27.904;2023-05-11T04:52:20;101613.66;;;13.88;100.00
11523;BME280;70090;43.208;27.904;2023-05-11T04:54:47;101604.78;;;14.02;100.00
11523;BME280;70090;43.208;27.904;2023-05-11T04:57:14;101611.63;;;14.11;98.68
11523;BME280;70090;43.208;27.904;2023-05-11T04:59:41;101620.09;;;14.18;95.58
11523;BME280;70090;43.208;27.904;2023-05-11T05:02:08;101616.22;;;14.26;96.01
11523;BME280;70090;43.208;27.904;2023-05-11T05:04:34;101615.44;;;14.26;96.03
11523;BME280;70090;43.208;27.904;2023-05-11T05:07:01;101622.22;;;14.32;96.60
11523;BME280;70090;43.208;27.904;2023-05-11T05:09:30;101614.25;;;14.27;95.87
11523;BME280;70090;43.208;27.904;2023-05-11T05:11:56;101634.47;;;14.31;95.53
11523;BME280;70090;43.208;27.904;2023-05-11T05:14:23;101634.06;;;14.29;95.94
11523;BME280;70090;43.208;27.904;2023-05-11T05:16:50;101629.28;;;14.26;96.69
11523;BME280;70090;43.208;27.904;2023-05-11T05:19:18;101638.00;;;14.28;97.26
11523;BME280;70090;43.208;27.904;2023-05-11T05:21:45;101635.78;;;14.37;95.96
11523;BME280;70090;43.208;27.904;2023-05-11T05:24:13;101636.19;;;14.39;94.83
11523;BME280;70090;43.208;27.904;2023-05-11T05:26:41;101632.78;;;14.49;93.91
11523;BME280;70090;43.208;27.904;2023-05-11T05:29:08;101639.31;;;14.63;94.08
11523;BME280;70090;43.208;27.904;2023-05-11T05:31:35;101635.94;;;14.77;92.40
11523;BME280;70090;43.208;27.904;2023-05-11T05:34:02;101640.84;;;14.90;90.71
11523;BME280;70090;43.208;27.904;2023-05-11T05:36:29;101640.41;;;14.88;90.69
11523;BME280;70090;43.208;27.904;2023-05-11T05:38:56;101648.38;;;14.90;91.06
11523;BME280;70090;43.208;27.904;2023-05-11T05:41:24;101644.31;;;14.84;90.31
11523;BME280;70090;43.208;27.904;2023-05-11T05:43:52;101641.41;;;14.73;91.27
11523;BME280;70090;43.208;27.904;2023-05-11T05:46:19;101653.63;;;14.69;91.69
11523;BME280;70090;43.208;27.904;2023-05-11T05:48:46;101651.19;;;14.64;94.05
11523;BME280;70090;43.208;27.904;2023-05-11T05:51:13;101666.19;;;14.59;95.88
11523;BME280;70090;43.208;27.904;2023-05-11T05:53:40;101661.88;;;14.65;96.00
11523;BME280;70090;43.208;27.904;2023-05-11T05:56:08;101662.97;;;14.87;95.54
11523;BME280;70090;43.208;27.904;2023-05-11T05:58:34;101662.69;;;14.95;92.29
11523;BME280;70090;43.208;27.904;2023-05-11T06:01:03;101665.56;;;15.05;90.80
11523;BME280;70090;43.208;27.904;2023-05-11T06:03:30;101665.25;;;15.10;90.34
11523;BME280;70090;43.208;27.904;2023-05-11T06:05:57;101659.03;;;15.20;90.28
11523;BME280;70090;43.208;27.904;2023-05-11T06:08:23;101658.28;;;15.23;90.49
11523;BME280;70090;43.208;27.904;2023-05-11T06:10:50;101663.22;;;15.37;89.57
11523;BME280;70090;43.208;27.904;2023-05-11T06:13:17;101665.25;;;15.43;88.65
11523;BME280;70090;43.208;27.904;2023-05-11T06:15:44;101669.34;;;15.56;88.27
11523;BME280;70090;43.208;27.904;2023-05-11T06:18:12;101675.31;;;15.55;87.04
11523;BME280;70090;43.208;27.904;2023-05-11T06:20:39;101684.06;;;15.60;86.70
11523;BME280;70090;43.208;27.904;2023-05-11T06:23:05;101676.91;;;15.56;83.76
11523;BME280;70090;43.208;27.904;2023-05-11T06:25:33;101662.13;;;15.48;83.58
11523;BME280;70090;43.208;27.904;2023-05-11T06:28:00;101678.03;;;15.51;83.49
11523;BME280;70090;43.208;27.904;2023-05-11T06:30:27;101677.13;;;15.40;83.60
11523;BME280;70090;43.208;27.904;2023-05-11T06:32:54;101672.81;;;15.46;84.36
11523;BME280;70090;43.208;27.904;2023-05-11T06:35:22;101672.75;;;15.39;84.53
11523;BME280;70090;43.208;27.904;2023-05-11T06:37:49;101675.03;;;15.30;85.14
11523;BME280;70090;43.208;27.904;2023-05-11T06:40:16;101667.22;;;15.39;86.34
11523;BME280;70090;43.208;27.904;2023-05-11T06:42:43;101677.88;;;15.37;86.41
11523;BME280;70090;43.208;27.904;2023-05-11T06:45:10;101677.88;;;15.37;87.56
11523;BME280;70090;43.208;27.904;2023-05-11T06:47:36;101677.88;;;15.37;88.39
11523;BME280;70090;43.208;27.904;2023-05-11T06:50:04;101673.47;;;15.33;89.45
11523;BME280;70090;43.208;27.904;2023-05-11T06:52:32;101684.59;;;15.36;90.50
11523;BME280;70090;43.208;27.904;2023-05-11T06:54:59;101668.06;;;15.47;90.92
11523;BME280;70090;43.208;27.904;2023-05-11T06:57:26;101674.03;;;15.49;90.90
11523;BME280;70090;43.208;27.904;2023-05-11T06:59:53;101680.75;;;15.48;91.84
11523;BME280;70090;43.208;27.904;2023-05-11T07:02:19;101681.50;;;15.41;93.37
11523;BME280;70090;43.208;27.904;2023-05-11T07:04:46;101680.72;;;15.44;93.45
11523;BME280;70090;43.208;27.904;2023-05-11T07:07:13;101676.75;;;15.45;92.37
11523;BME280;70090;43.208;27.904;2023-05-11T07:09:41;101679.34;;;15.64;91.02
11523;BME280;70090;43.208;27.904;2023-05-11T07:12:08;101687.94;;;15.92;89.40
11523;BME280;70090;43.208;27.904;2023-05-11T07:14:35;101682.13;;;16.08;90.10
11523;BME280;70090;43.208;27.904;2023-05-11T07:17:02;101695.63;;;16.09;88.83
11523;BME280;70090;43.208;27.904;2023-05-11T07:19:29;101698.09;;;16.21;88.98
11523;BME280;70090;43.208;27.904;2023-05-11T07:21:56;101703.78;;;16.35;87.87
11523;BME280;70090;43.208;27.904;2023-05-11T07:24:23;101701.91;;;16.50;87.43
11523;BME280;70090;43.208;27.904;2023-05-11T07:26:51;101696.81;;;16.62;87.21
11523;BME280;70090;43.208;27.904;2023-05-11T07:29:18;101705.63;;;16.71;86.39
11523;BME280;70090;43.208;27.904;2023-05-11T07:31:45;101708.00;;;16.69;85.08
11523;BME280;70090;43.208;27.904;2023-05-11T07:34:12;101711.19;;;16.71;83.40
11523;BME280;70090;43.208;27.904;2023-05-11T07:36:39;101708.75;;;16.63;83.41
11523;BME280;70090;43.208;27.904;2023-05-11T07:39:06;101716.97;;;16.49;83.89
11523;BME280;70090;43.208;27.904;2023-05-11T07:41:33;101695.69;;;16.16;85.88
11523;BME280;70090;43.208;27.904;2023-05-11T07:44:01;101714.63;;;16.04;87.95
11523;BME280;70090;43.208;27.904;2023-05-11T07:46:28;101715.03;;;16.06;88.94
11523;BME280;70090;43.208;27.904;2023-05-11T07:48:55;101711.47;;;16.05;88.81
11523;BME280;70090;43.208;27.904;2023-05-11T07:51:22;101712.16;;;15.95;88.48
11523;BME280;70090;43.208;27.904;2023-05-11T07:53:48;101709.84;;;16.01;88.30
11523;BME280;70090;43.208;27.904;2023-05-11T07:56:15;101710.66;;;16.05;88.27
11523;BME280;70090;43.208;27.904;2023-05-11T07:58:42;101705.31;;;15.82;87.74
11523;BME280;70090;43.208;27.904;2023-05-11T08:01:11;101723.06;;;15.74;88.30
11523;BME280;70090;43.208;27.904;2023-05-11T08:03:37;101723.88;;;15.78;88.82
11523;BME280;70090;43.208;27.904;2023-05-11T08:06:05;101716.81;;;15.84;89.19
11523;BME280;70090;43.208;27.904;2023-05-11T08:08:33;101699.31;;;15.80;89.72
11523;BME280;70090;43.208;27.904;2023-05-11T08:10:59;101696.97;;;15.82;89.16
11523;BME280;70090;43.208;27.904;2023-05-11T08:13:26;101732.50;;;16.06;88.52
11523;BME280;70090;43.208;27.904;2023-05-11T08:15:53;101723.13;;;16.25;87.19
11523;BME280;70090;43.208;27.904;2023-05-11T08:18:22;101725.09;;;16.21;85.95
11523;BME280;70090;43.208;27.904;2023-05-11T08:20:48;101721.09;;;16.18;86.95
11523;BME280;70090;43.208;27.904;2023-05-11T08:23:15;101725.25;;;16.38;87.43
11523;BME280;70090;43.208;27.904;2023-05-11T08:25:48;101719.31;;;16.43;87.23
11523;BME280;70090;43.208;27.904;2023-05-11T08:28:16;101715.91;;;16.64;85.80
11523;BME280;70090;43.208;27.904;2023-05-11T08:30:43;101712.69;;;16.58;84.61
11523;BME280;70090;43.208;27.904;2023-05-11T08:33:10;101709.59;;;16.70;84.19
11523;BME280;70090;43.208;27.904;2023-05-11T08:35:39;101711.19;;;16.71;83.12
11523;BME280;70090;43.208;27.904;2023-05-11T08:38:05;101712.84;;;16.86;84.15
11523;BME280;70090;43.208;27.904;2023-05-11T08:40:32;101710.56;;;17.02;82.82
11523;BME280;70090;43.208;27.904;2023-05-11T08:43:03;101713.69;;;16.90;83.95
11523;BME280;70090;43.208;27.904;2023-05-11T08:45:34;101714.53;;;17.08;84.29
11523;BME280;70090;43.208;27.904;2023-05-11T08:48:02;101706.69;;;17.24;83.60
11523;BME280;70090;43.208;27.904;2023-05-11T08:50:30;101695.97;;;17.33;83.20
11523;BME280;70090;43.208;27.904;2023-05-11T08:52:59;101694.06;;;17.44;82.76
11523;BME280;70090;43.208;27.904;2023-05-11T08:55:26;101691.28;;;17.51;82.91
11523;BME280;70090;43.208;27.904;2023-05-11T08:57:54;101706.03;;;17.65;81.75
11523;BME280;70090;43.208;27.904;2023-05-11T09:00:23;101691.72;;;17.63;80.71
11523;BME280;70090;43.208;27.904;2023-05-11T09:02:50;101688.53;;;17.62;80.97
11523;BME280;70090;43.208;27.904;2023-05-11T09:05:18;101689.72;;;17.64;81.49
11523;BME280;70090;43.208;27.904;2023-05-11T09:07:46;101684.56;;;17.76;80.19
11523;BME280;70090;43.208;27.904;2023-05-11T09:10:18;101687.38;;;17.73;80.62
11523;BME280;70090;43.208;27.904;2023-05-11T09:12:46;101686.56;;;17.86;79.86
11523;BME280;70090;43.208;27.904;2023-05-11T09:15:12;101675.44;;;17.86;80.49
11523;BME280;70090;43.208;27.904;2023-05-11T09:17:39;101683.00;;;17.89;80.87
11523;BME280;70090;43.208;27.904;2023-05-11T09:20:07;101686.97;;;18.13;79.22
11523;BME280;70090;43.208;27.904;2023-05-11T09:22:40;101681.03;;;18.32;77.03
11523;BME280;70090;43.208;27.904;2023-05-11T09:25:10;101686.59;;;18.28;78.32
11523;BME280;70090;43.208;27.904;2023-05-11T09:27:41;101678.59;;;18.09;77.96
11523;BME280;70090;43.208;27.904;2023-05-11T09:30:10;101679.81;;;18.19;79.69
11523;BME280;70090;43.208;27.904;2023-05-11T09:32:45;101683.78;;;18.25;78.37
11523;BME280;70090;43.208;27.904;2023-05-11T09:35:21;101673.88;;;18.38;77.65
11523;BME280;70090;43.208;27.904;2023-05-11T09:37:59;101675.03;;;18.51;78.61
11523;BME280;70090;43.208;27.904;2023-05-11T09:40:27;101670.22;;;18.51;77.26
11523;BME280;70090;43.208;27.904;2023-05-11T09:42:55;101664.66;;;18.58;78.30
11523;BME280;70090;43.208;27.904;2023-05-11T09:45:35;101674.19;;;18.68;76.94
11523;BME280;70090;43.208;27.904;2023-05-11T09:48:03;101677.84;;;18.37;75.33
11523;BME280;70090;43.208;27.904;2023-05-11T09:50:33;101651.97;;;18.36;75.90
11523;BME280;70090;43.208;27.904;2023-05-11T09:53:01;101677.41;;;18.56;76.65
11523;BME280;70090;43.208;27.904;2023-05-11T09:55:28;101672.19;;;18.65;76.98
11523;BME280;70090;43.208;27.904;2023-05-11T09:57:57;101678.97;;;18.64;76.74
11523;BME280;70090;43.208;27.904;2023-05-11T10:00:25;101677.38;;;18.70;76.59
11523;BME280;70090;43.208;27.904;2023-05-11T10:02:59;101672.59;;;18.70;75.47
11523;BME280;70090;43.208;27.904;2023-05-11T10:05:28;101663.00;;;18.85;75.92
11523;BME280;70090;43.208;27.904;2023-05-11T10:07:56;101667.38;;;18.76;75.47
11523;BME280;70090;43.208;27.904;2023-05-11T10:10:25;101670.63;;;18.57;76.99
11523;BME280;70090;43.208;27.904;2023-05-11T10:12:53;101674.19;;;18.68;76.31
11523;BME280;70090;43.208;27.904;2023-05-11T10:15:22;101671.78;;;18.73;74.92
11523;BME280;70090;43.208;27.904;2023-05-11T10:17:52;101670.28;;;18.48;75.17
11523;BME280;70090;43.208;27.904;2023-05-11T10:20:20;101662.28;;;18.50;74.36
11523;BME280;70090;43.208;27.904;2023-05-11T10:22:47;101665.47;;;18.45;74.47
11523;BME280;70090;43.208;27.904;2023-05-11T10:25:16;101671.03;;;18.59;74.65
11523;BME280;70090;43.208;27.904;2023-05-11T10:27:43;101666.16;;;18.84;73.28
11523;BME280;70090;43.208;27.904;2023-05-11T10:30:11;101662.16;;;18.92;71.97
11523;BME280;70090;43.208;27.904;2023-05-11T10:32:40;101662.88;;;19.10;71.34
11523;BME280;70090;43.208;27.904;2023-05-11T10:35:08;101670.84;;;19.22;72.02
11523;BME280;70090;43.208;27.904;2023-05-11T10:37:35;101661.22;;;19.30;72.13
11523;BME280;70090;43.208;27.904;2023-05-11T10:40:02;101656.34;;;19.41;71.55
11523;BME280;70090;43.208;27.904;2023-05-11T10:42:40;101662.06;;;19.20;71.88
11523;BME280;70090;43.208;27.904;2023-05-11T10:45:15;101667.38;;;18.79;72.68
11523;BME280;70090;43.208;27.904;2023-05-11T10:48:10;101663.78;;;18.82;73.10
11523;BME280;70090;43.208;27.904;2023-05-11T10:53:50;101662.16;;;18.92;71.11
11523;BME280;70090;43.208;27.904;2023-05-11T10:56:32;101671.75;;;18.84;71.52
11523;BME280;70090;43.208;27.904;2023-05-11T10:59:19;101666.56;;;18.79;73.38
11523;BME280;70090;43.208;27.904;2023-05-11T11:01:52;101666.56;;;18.79;72.62
11523;BME280;70090;43.208;27.904;2023-05-11T11:04:24;101675.38;;;18.77;72.15
11523;BME280;70090;43.208;27.904;2023-05-11T11:07:03;101674.47;;;19.01;72.15
11523;BME280;70090;43.208;27.904;2023-05-11T11:09:49;101671.31;;;18.92;72.56
11523;BME280;70090;43.208;27.904;2023-05-11T11:12:17;101678.03;;;19.09;71.25
11523;BME280;70090;43.208;27.904;2023-05-11T11:14:56;101668.44;;;19.20;71.33
11523;BME280;70090;43.208;27.904;2023-05-11T11:17:26;101674.41;;;19.19;70.37
11523;BME280;70090;43.208;27.904;2023-05-11T11:19:57;101674.00;;;19.13;70.51
11523;BME280;70090;43.208;27.904;2023-05-11T11:22:49;101669.28;;;19.07;71.00
11523;BME280;70090;43.208;27.904;2023-05-11T11:25:48;101665.94;;;19.40;72.02
11523;BME280;70090;43.208;27.904;2023-05-11T11:28:15;101667.03;;;19.56;71.03
11523;BME280;70090;43.208;27.904;2023-05-11T11:30:42;101668.09;;;19.76;70.82
11523;BME280;70090;43.208;27.904;2023-05-11T11:33:31;101664.06;;;19.84;70.28
11523;BME280;70090;43.208;27.904;2023-05-11T11:36:00;101660.19;;;19.68;70.74
11523;BME280;70090;43.208;27.904;2023-05-11T11:38:27;101658.53;;;19.74;70.33
11523;BME280;70090;43.208;27.904;2023-05-11T11:40:56;101652.16;;;19.73;70.42
11523;BME280;70090;43.208;27.904;2023-05-11T11:43:25;101655.97;;;19.97;70.57
11523;BME280;70090;43.208;27.904;2023-05-11T11:45:53;101655.88;;;20.11;70.18
11523;BME280;70090;43.208;27.904;2023-05-11T11:48:21;101658.22;;;20.16;69.57
11523;BME280;70090;43.208;27.904;2023-05-11T11:51:01;101652.97;;;20.21;69.88
11523;BME280;70090;43.208;27.904;2023-05-11T11:54:02;101650.06;;;20.35;68.91
11523;BME280;70090;43.208;27.904;2023-05-11T11:56:42;101646.69;;;20.50;68.58
11523;BME280;70090;43.208;27.904;2023-05-11T11:59:10;101657.06;;;20.53;67.94
11523;BME280;70090;43.208;27.904;2023-05-11T12:01:40;101649.78;;;20.59;67.74
11523;BME280;70090;43.208;27.904;2023-05-11T12:04:18;101652.34;;;20.43;68.62
11523;BME280;70090;43.208;27.904;2023-05-11T12:06:56;101652.53;;;20.26;70.39
11523;BME280;70090;43.208;27.904;2023-05-11T12:09:24;101641.53;;;20.02;69.32
11523;BME280;70090;43.208;27.904;2023-05-11T12:11:51;101642.03;;;19.93;69.16
11523;BME280;70090;43.208;27.904;2023-05-11T12:14:19;101646.38;;;19.98;69.95
11523;BME280;70090;43.208;27.904;2023-05-11T12:17:03;101639.97;;;20.01;69.95
11523;BME280;70090;43.208;27.904;2023-05-11T12:19:33;101646.06;;;19.85;71.03
11523;BME280;70090;43.208;27.904;2023-05-11T12:22:01;101636.88;;;19.88;70.67
11523;BME280;70090;43.208;27.904;2023-05-11T12:24:28;101641.50;;;20.12;69.15
11523;BME280;70090;43.208;27.904;2023-05-11T12:26:56;101609.22;;;20.01;68.64
11523;BME280;70090;43.208;27.904;2023-05-11T12:29:23;101643.28;;;20.33;67.65
11523;BME280;70090;43.208;27.904;2023-05-11T12:31:50;101634.75;;;20.06;67.84
11523;BME280;70090;43.208;27.904;2023-05-11T12:34:18;101637.00;;;19.74;68.82
11523;BME280;70090;43.208;27.904;2023-05-11T12:36:46;101634.59;;;19.73;68.17
11523;BME280;70090;43.208;27.904;2023-05-11T12:39:19;101631.06;;;19.65;68.16
11523;BME280;70090;43.208;27.904;2023-05-11T12:41:47;101633.47;;;19.67;67.62
11523;BME280;70090;43.208;27.904;2023-05-11T12:44:15;101619.50;;;19.67;69.02
11523;BME280;70090;43.208;27.904;2023-05-11T12:46:43;101623.09;;;19.64;70.39
11523;BME280;70090;43.208;27.904;2023-05-11T12:49:11;101617.16;;;19.58;69.72